<?xml version="1.0" encoding="UTF-8" standalone="no" ?>
<gpx xmlns="http://www.topografix.com/GPX/1/1" xmlns:xsi="http://www.w3.org/2001/XMLSchema-instance" xsi:schemaLocation="http://www.topografix.com/GPX/1/1 http://www.topografix.com/GPX/1/1/gpx.xsd" version="1.1" creator="VisuGPX - https://www.visugpx.com">
  <metadata>
    <name>Valpréveyre - Lago Verde</name>
  </metadata>
  <wpt lat="44.81205" lon="6.96788">
    <ele>1853.1</ele>
    <name><![CDATA[Parking Valpreveyre]]></name>
  </wpt>
  <wpt lat="44.81141" lon="6.96904">
    <ele>1856.9</ele>
    <name><![CDATA[Carrefour Valpréveyre]]></name>
  </wpt>
  <wpt lat="44.80989" lon="7.00178">
    <ele>2227.8</ele>
    <name><![CDATA[Carrefour Malaure]]></name>
  </wpt>
  <trk>
    <name><![CDATA[Valpréveyre - Lago Verde]]></name>
    <extensions>
      <line xmlns="http://www.topografix.com/GPX/gpx_style/0/2">
        <color>0000FF</color>
        <width>4</width>
      </line>
    </extensions>
    <trkseg>
      <trkpt lat="44.81205" lon="6.96788">
        <ele>1861</ele>
        <time>2021-07-13T20:09:54+02:00</time>
      </trkpt>
      <trkpt lat="44.81187" lon="6.96887">
        <ele>1859</ele>
        <time>2021-07-13T20:09:59+02:00</time>
      </trkpt>
      <trkpt lat="44.81141" lon="6.96904">
        <ele>1859</ele>
        <time>2021-07-13T20:10:04+02:00</time>
      </trkpt>
      <trkpt lat="44.81163" lon="6.97028">
        <ele>1862</ele>
        <time>2021-07-13T20:10:09+02:00</time>
      </trkpt>
      <trkpt lat="44.81178" lon="6.97127">
        <ele>1870</ele>
        <time>2021-07-13T20:10:14+02:00</time>
      </trkpt>
      <trkpt lat="44.81269" lon="6.97294">
        <ele>1884</ele>
        <time>2021-07-13T20:10:19+02:00</time>
      </trkpt>
      <trkpt lat="44.81336" lon="6.97462">
        <ele>1893</ele>
        <time>2021-07-13T20:10:24+02:00</time>
      </trkpt>
      <trkpt lat="44.81352" lon="6.97578">
        <ele>1907</ele>
        <time>2021-07-13T20:10:29+02:00</time>
      </trkpt>
      <trkpt lat="44.81361" lon="6.97724">
        <ele>1914</ele>
        <time>2021-07-13T20:10:34+02:00</time>
      </trkpt>
      <trkpt lat="44.81361" lon="6.97908">
        <ele>1932</ele>
        <time>2021-07-13T20:10:39+02:00</time>
      </trkpt>
      <trkpt lat="44.81391" lon="6.98093">
        <ele>1940</ele>
        <time>2021-07-13T20:10:44+02:00</time>
      </trkpt>
      <trkpt lat="44.814" lon="6.9826">
        <ele>1950</ele>
        <time>2021-07-13T20:10:49+02:00</time>
      </trkpt>
      <trkpt lat="44.81382" lon="6.98393">
        <ele>1964</ele>
        <time>2021-07-13T20:10:54+02:00</time>
      </trkpt>
      <trkpt lat="44.81358" lon="6.98548">
        <ele>1979</ele>
        <time>2021-07-13T20:10:59+02:00</time>
      </trkpt>
      <trkpt lat="44.81321" lon="6.98685">
        <ele>1993</ele>
        <time>2021-07-13T20:11:04+02:00</time>
      </trkpt>
      <trkpt lat="44.81269" lon="6.98852">
        <ele>2000</ele>
        <time>2021-07-13T20:11:09+02:00</time>
      </trkpt>
      <trkpt lat="44.81215" lon="6.98977">
        <ele>2002</ele>
        <time>2021-07-13T20:11:14+02:00</time>
      </trkpt>
      <trkpt lat="44.81175" lon="6.9914">
        <ele>1991</ele>
        <time>2021-07-13T20:11:19+02:00</time>
      </trkpt>
      <trkpt lat="44.81135" lon="6.99329">
        <ele>1997</ele>
        <time>2021-07-13T20:11:24+02:00</time>
      </trkpt>
      <trkpt lat="44.81041" lon="6.99427">
        <ele>2017</ele>
        <time>2021-07-13T20:11:29+02:00</time>
      </trkpt>
      <trkpt lat="44.80959" lon="6.99535">
        <ele>2038</ele>
        <time>2021-07-13T20:11:34+02:00</time>
      </trkpt>
      <trkpt lat="44.80895" lon="6.99569">
        <ele>2054</ele>
        <time>2021-07-13T20:11:39+02:00</time>
      </trkpt>
      <trkpt lat="44.80819" lon="6.99672">
        <ele>2074</ele>
        <time>2021-07-13T20:11:44+02:00</time>
      </trkpt>
      <trkpt lat="44.80788" lon="6.99809">
        <ele>2099</ele>
        <time>2021-07-13T20:11:49+02:00</time>
      </trkpt>
      <trkpt lat="44.80883" lon="6.99878">
        <ele>2123</ele>
        <time>2021-07-13T20:11:54+02:00</time>
      </trkpt>
      <trkpt lat="44.80931" lon="6.99947">
        <ele>2151</ele>
        <time>2021-07-13T20:11:59+02:00</time>
      </trkpt>
      <trkpt lat="44.80959" lon="7.00067">
        <ele>2186</ele>
        <time>2021-07-13T20:12:04+02:00</time>
      </trkpt>
      <trkpt lat="44.80989" lon="7.00178">
        <ele>2214</ele>
        <time>2021-07-13T20:12:09+02:00</time>
      </trkpt>
      <trkpt lat="44.80928" lon="7.00161">
        <ele>2222</ele>
        <time>2021-07-13T20:12:14+02:00</time>
      </trkpt>
      <trkpt lat="44.80864" lon="7.0017">
        <ele>2227</ele>
        <time>2021-07-13T20:12:19+02:00</time>
      </trkpt>
      <trkpt lat="44.80831" lon="7.00247">
        <ele>2258</ele>
        <time>2021-07-13T20:12:24+02:00</time>
      </trkpt>
      <trkpt lat="44.80788" lon="7.00337">
        <ele>2292</ele>
        <time>2021-07-13T20:12:29+02:00</time>
      </trkpt>
      <trkpt lat="44.80709" lon="7.00406">
        <ele>2311</ele>
        <time>2021-07-13T20:12:34+02:00</time>
      </trkpt>
      <trkpt lat="44.8077" lon="7.00444">
        <ele>2324</ele>
        <time>2021-07-13T20:12:39+02:00</time>
      </trkpt>
      <trkpt lat="44.80703" lon="7.00483">
        <ele>2330</ele>
        <time>2021-07-13T20:12:44+02:00</time>
      </trkpt>
      <trkpt lat="44.80755" lon="7.00513">
        <ele>2340</ele>
        <time>2021-07-13T20:12:49+02:00</time>
      </trkpt>
      <trkpt lat="44.80794" lon="7.00556">
        <ele>2354</ele>
        <time>2021-07-13T20:12:54+02:00</time>
      </trkpt>
      <trkpt lat="44.80712" lon="7.00633">
        <ele>2358</ele>
        <time>2021-07-13T20:12:59+02:00</time>
      </trkpt>
      <trkpt lat="44.80703" lon="7.0068">
        <ele>2361</ele>
        <time>2021-07-13T20:13:04+02:00</time>
      </trkpt>
      <trkpt lat="44.807" lon="7.00783">
        <ele>2370</ele>
        <time>2021-07-13T20:13:09+02:00</time>
      </trkpt>
      <trkpt lat="44.80682" lon="7.00852">
        <ele>2373</ele>
        <time>2021-07-13T20:13:14+02:00</time>
      </trkpt>
      <trkpt lat="44.80624" lon="7.00908">
        <ele>2388</ele>
        <time>2021-07-13T20:13:19+02:00</time>
      </trkpt>
      <trkpt lat="44.80557" lon="7.00959">
        <ele>2415</ele>
        <time>2021-07-13T20:13:24+02:00</time>
      </trkpt>
      <trkpt lat="44.8052" lon="7.01032">
        <ele>2439</ele>
        <time>2021-07-13T20:13:29+02:00</time>
      </trkpt>
      <trkpt lat="44.80475" lon="7.0111">
        <ele>2478</ele>
        <time>2021-07-13T20:13:34+02:00</time>
      </trkpt>
      <trkpt lat="44.80463" lon="7.01178">
        <ele>2504</ele>
        <time>2021-07-13T20:13:39+02:00</time>
      </trkpt>
      <trkpt lat="44.80402" lon="7.01221">
        <ele>2531</ele>
        <time>2021-07-13T20:13:44+02:00</time>
      </trkpt>
      <trkpt lat="44.80319" lon="7.01251">
        <ele>2517</ele>
        <time>2021-07-13T20:13:49+02:00</time>
      </trkpt>
      <trkpt lat="44.80249" lon="7.0126">
        <ele>2479</ele>
        <time>2021-07-13T20:13:54+02:00</time>
      </trkpt>
      <trkpt lat="44.8021" lon="7.01281">
        <ele>2451</ele>
        <time>2021-07-13T20:13:59+02:00</time>
      </trkpt>
      <trkpt lat="44.80237" lon="7.01371">
        <ele>2390</ele>
        <time>2021-07-13T20:14:04+02:00</time>
      </trkpt>
      <trkpt lat="44.80274" lon="7.01449">
        <ele>2351</ele>
        <time>2021-07-13T20:14:09+02:00</time>
      </trkpt>
      <trkpt lat="44.8031" lon="7.01496">
        <ele>2324</ele>
        <time>2021-07-13T20:14:14+02:00</time>
      </trkpt>
      <trkpt lat="44.80377" lon="7.01565">
        <ele>2299</ele>
        <time>2021-07-13T20:14:19+02:00</time>
      </trkpt>
      <trkpt lat="44.80502" lon="7.01672">
        <ele>2265</ele>
        <time>2021-07-13T20:14:24+02:00</time>
      </trkpt>
      <trkpt lat="44.80603" lon="7.01719">
        <ele>2291</ele>
        <time>2021-07-13T20:14:29+02:00</time>
      </trkpt>
      <trkpt lat="44.80688" lon="7.01753">
        <ele>2321</ele>
        <time>2021-07-13T20:14:34+02:00</time>
      </trkpt>
      <trkpt lat="44.80727" lon="7.01813">
        <ele>2326</ele>
        <time>2021-07-13T20:14:39+02:00</time>
      </trkpt>
      <trkpt lat="44.80822" lon="7.01874">
        <ele>2371</ele>
        <time>2021-07-13T20:14:44+02:00</time>
      </trkpt>
      <trkpt lat="44.80861" lon="7.01968">
        <ele>2376</ele>
        <time>2021-07-13T20:14:49+02:00</time>
      </trkpt>
      <trkpt lat="44.80886" lon="7.02071">
        <ele>2377</ele>
        <time>2021-07-13T20:14:54+02:00</time>
      </trkpt>
      <trkpt lat="44.80918" lon="7.02232">
        <ele>2385</ele>
        <time>2021-07-13T20:14:59+02:00</time>
      </trkpt>
      <trkpt lat="44.80941" lon="7.02277">
        <ele>2396</ele>
        <time>2021-07-13T20:15:04+02:00</time>
      </trkpt>
      <trkpt lat="44.80986" lon="7.0235">
        <ele>2411</ele>
        <time>2021-07-13T20:15:09+02:00</time>
      </trkpt>
      <trkpt lat="44.81062" lon="7.0235">
        <ele>2402</ele>
        <time>2021-07-13T20:15:14+02:00</time>
      </trkpt>
      <trkpt lat="44.81148" lon="7.0232">
        <ele>2404</ele>
        <time>2021-07-13T20:15:19+02:00</time>
      </trkpt>
      <trkpt lat="44.8123" lon="7.02273">
        <ele>2415</ele>
        <time>2021-07-13T20:15:24+02:00</time>
      </trkpt>
      <trkpt lat="44.81315" lon="7.02208">
        <ele>2467</ele>
        <time>2021-07-13T20:15:29+02:00</time>
      </trkpt>
      <trkpt lat="44.81406" lon="7.022">
        <ele>2495</ele>
        <time>2021-07-13T20:15:34+02:00</time>
      </trkpt>
      <trkpt lat="44.81504" lon="7.02178">
        <ele>2532</ele>
        <time>2021-07-13T20:15:39+02:00</time>
      </trkpt>
      <trkpt lat="44.81641" lon="7.02157">
        <ele>2571</ele>
        <time>2021-07-13T20:15:44+02:00</time>
      </trkpt>
      <trkpt lat="44.81708" lon="7.02032">
        <ele>2626</ele>
        <time>2021-07-13T20:15:49+02:00</time>
      </trkpt>
      <trkpt lat="44.81732" lon="7.01989">
        <ele>2640</ele>
        <time>2021-07-13T20:15:54+02:00</time>
      </trkpt>
      <trkpt lat="44.81814" lon="7.02002">
        <ele>2636</ele>
        <time>2021-07-13T20:15:59+02:00</time>
      </trkpt>
      <trkpt lat="44.81832" lon="7.01911">
        <ele>2596</ele>
        <time>2021-07-13T20:16:04+02:00</time>
      </trkpt>
      <trkpt lat="44.81826" lon="7.01878">
        <ele>2584</ele>
        <time>2021-07-13T20:16:09+02:00</time>
      </trkpt>
      <trkpt lat="44.81834" lon="7.01834">
        <ele>2566</ele>
        <time>2021-07-13T20:16:14+02:00</time>
      </trkpt>
      <trkpt lat="44.81893" lon="7.0178">
        <ele>2566</ele>
        <time>2021-07-13T20:16:19+02:00</time>
      </trkpt>
      <trkpt lat="44.81952" lon="7.01714">
        <ele>2560</ele>
        <time>2021-07-13T20:16:24+02:00</time>
      </trkpt>
      <trkpt lat="44.82021" lon="7.01637">
        <ele>2554</ele>
        <time>2021-07-13T20:16:29+02:00</time>
      </trkpt>
      <trkpt lat="44.82094" lon="7.0167">
        <ele>2572</ele>
        <time>2021-07-13T20:16:34+02:00</time>
      </trkpt>
      <trkpt lat="44.82117" lon="7.01693">
        <ele>2583</ele>
        <time>2021-07-13T20:16:39+02:00</time>
      </trkpt>
      <trkpt lat="44.82137" lon="7.01732">
        <ele>2599</ele>
        <time>2021-07-13T20:16:44+02:00</time>
      </trkpt>
      <trkpt lat="44.82169" lon="7.01781">
        <ele>2620</ele>
        <time>2021-07-13T20:16:49+02:00</time>
      </trkpt>
      <trkpt lat="44.82198" lon="7.01816">
        <ele>2636</ele>
        <time>2021-07-13T20:16:54+02:00</time>
      </trkpt>
      <trkpt lat="44.82227" lon="7.01835">
        <ele>2649</ele>
        <time>2021-07-13T20:16:59+02:00</time>
      </trkpt>
      <trkpt lat="44.82245" lon="7.01869">
        <ele>2665</ele>
        <time>2021-07-13T20:17:04+02:00</time>
      </trkpt>
      <trkpt lat="44.82263" lon="7.01921">
        <ele>2685</ele>
        <time>2021-07-13T20:17:09+02:00</time>
      </trkpt>
      <trkpt lat="44.82318" lon="7.01946">
        <ele>2704</ele>
        <time>2021-07-13T20:17:14+02:00</time>
      </trkpt>
      <trkpt lat="44.82347" lon="7.01938">
        <ele>2707</ele>
        <time>2021-07-13T20:17:19+02:00</time>
      </trkpt>
      <trkpt lat="44.82381" lon="7.0192">
        <ele>2709</ele>
        <time>2021-07-13T20:17:24+02:00</time>
      </trkpt>
      <trkpt lat="44.82403" lon="7.01928">
        <ele>2719</ele>
        <time>2021-07-13T20:17:29+02:00</time>
      </trkpt>
      <trkpt lat="44.82423" lon="7.01921">
        <ele>2721</ele>
        <time>2021-07-13T20:17:34+02:00</time>
      </trkpt>
      <trkpt lat="44.82452" lon="7.01896">
        <ele>2724</ele>
        <time>2021-07-13T20:17:39+02:00</time>
      </trkpt>
      <trkpt lat="44.82481" lon="7.01822">
        <ele>2726</ele>
        <time>2021-07-13T20:17:44+02:00</time>
      </trkpt>
      <trkpt lat="44.825" lon="7.01826">
        <ele>2735</ele>
        <time>2021-07-13T20:17:49+02:00</time>
      </trkpt>
      <trkpt lat="44.82512" lon="7.0181">
        <ele>2727</ele>
        <time>2021-07-13T20:17:54+02:00</time>
      </trkpt>
      <trkpt lat="44.82528" lon="7.01825">
        <ele>2714</ele>
        <time>2021-07-13T20:17:59+02:00</time>
      </trkpt>
      <trkpt lat="44.82541" lon="7.01821">
        <ele>2704</ele>
        <time>2021-07-13T20:18:04+02:00</time>
      </trkpt>
      <trkpt lat="44.82555" lon="7.01836">
        <ele>2693</ele>
        <time>2021-07-13T20:18:09+02:00</time>
      </trkpt>
      <trkpt lat="44.82545" lon="7.01874">
        <ele>2702</ele>
        <time>2021-07-13T20:18:14+02:00</time>
      </trkpt>
      <trkpt lat="44.82577" lon="7.01923">
        <ele>2676</ele>
        <time>2021-07-13T20:18:19+02:00</time>
      </trkpt>
      <trkpt lat="44.82589" lon="7.01961">
        <ele>2664</ele>
        <time>2021-07-13T20:18:24+02:00</time>
      </trkpt>
      <trkpt lat="44.82616" lon="7.01996">
        <ele>2644</ele>
        <time>2021-07-13T20:18:29+02:00</time>
      </trkpt>
      <trkpt lat="44.82644" lon="7.02017">
        <ele>2626</ele>
        <time>2021-07-13T20:18:34+02:00</time>
      </trkpt>
      <trkpt lat="44.82707" lon="7.02033">
        <ele>2603</ele>
        <time>2021-07-13T20:18:39+02:00</time>
      </trkpt>
      <trkpt lat="44.82801" lon="7.02019">
        <ele>2583</ele>
        <time>2021-07-13T20:18:44+02:00</time>
      </trkpt>
    </trkseg>
  </trk>
</gpx>